Hovedside
METAR-TAF:

METAR-TAF

Lufthavner :

Vojens, Danmark

breddegrad: 55-14N, lengdegrad: 009-16E, høyde over havet: 43 m

Gjeldene værobservasjon

Denne rapporten ble laget for 34 minutter siden, klokken 12:20 UTC
Vind 7 kt fra Nordvest, skiftende mellom Sørvest og Nord
Temperatur 23°C
Luftfuktighet 50%
Trykk 1015 hPa
Sikt 10 km eller mer
Få skyer i en høyde av 4800 ft
Spredte skyer i en høyde av 22000 ft

METAR: EKSP 201220Z 31007KT 220V350 9999 FEW048 SCT220 23/12 Q1015 NOSIG

Tid: 14:54 (12:54 UTC)

Varsel

Denne rapporten ble laget for 1 time og 52 minutter siden, klokken 11:02 UTC
Varsel gyldig fra 20. klokken 12 UTC til 21. klokken 12 UTC
Vind 10 kt fra Vest-nordvest
Sikt 10 km eller mer
Få skyer i en høyde av 4000 ft
Midlertidig
fra 21. klokken 01 UTC til 21. klokken 06 UTC
Sikt: 1500 m
tåkebanker, Grunne tåke

TAF: EKSP 201102Z 2012/2112 29010KT 9999 FEW040 TEMPO 2101/2106 1500 BCFG MIFG

Værobservasjoner og værvarsel for over 4000 flyplasser (METAR- og TAF-rapporter).

Tilgjengelige stasjoner er representert av de røde og gule prikkene på kartet.

Hold musepekeren over prikken for å se navnet på stasjonen.

Klikk så for å se værobservasjoner og -varsler.

For å forandre kartet kan du klikke på den grønne knappen med svart kryss for å zoome inn, på den grønne knappen med strek for å zoome ut, eller på de grønne pilene for å se tilstøtende kart.


METAR-TAF: